createdAt,value
2018-04-14T00:00:31.497Z,14.78
2018-04-14T00:06:32.307Z,11.77
2018-04-14T00:10:34.161Z,11.55
2018-04-14T00:16:35.157Z,10.35
2018-04-14T00:20:36.119Z,14.4
2018-04-14T00:22:36.804Z,14.18
2018-04-14T00:26:37.880Z,13.88
2018-04-14T00:32:38.599Z,13.81
2018-04-14T00:36:39.469Z,11.79
2018-04-14T00:42:40.170Z,10.03
2018-04-14T00:48:40.889Z,10.16
2018-04-14T00:52:41.719Z,10.63
2018-04-14T00:58:42.484Z,8.7
2018-04-14T01:02:43.270Z,8.95
2018-04-14T01:04:43.977Z,8.89
2018-04-14T01:08:44.824Z,8.44
2018-04-14T01:14:45.548Z,10.43
2018-04-14T01:18:46.550Z,13.15
2018-04-14T01:24:47.385Z,9.66
2018-04-14T01:28:48.137Z,8.87
2018-04-14T01:30:48.800Z,10.24
2018-04-14T01:34:49.634Z,11.56
2018-04-14T01:40:50.459Z,8.31
2018-04-14T01:50:52.954Z,9.53
2018-04-14T01:50:53.161Z,8.12
2018-04-14T01:56:53.949Z,11.83
2018-04-14T02:00:54.660Z,9.9
2018-04-14T02:06:55.478Z,11.25
2018-04-14T02:10:56.216Z,9.99
2018-04-14T02:12:56.945Z,10.53
2018-04-14T02:16:57.688Z,8.81
2018-04-14T02:22:58.371Z,10.32
2018-04-14T02:26:59.035Z,10.37
2018-04-14T02:32:59.855Z,9.94
2018-04-14T02:37:00.531Z,10.66
2018-04-14T02:39:01.278Z,9.4
2018-04-14T02:43:01.980Z,9.12
2018-04-14T02:49:02.649Z,8.57
2018-04-14T02:53:03.488Z,11.47
2018-04-14T02:59:04.290Z,10.22
2018-04-14T03:05:05.032Z,11.29
2018-04-14T03:09:05.755Z,9.7
2018-04-14T03:15:07.248Z,13.36
2018-04-14T03:19:08.245Z,12.31
2018-04-14T03:21:09.029Z,14.35
2018-04-14T03:25:09.822Z,11.1
2018-04-14T03:31:10.692Z,11.59
2018-04-14T03:35:11.366Z,11.01
2018-04-14T03:41:12.185Z,13.43
2018-04-14T03:45:13.258Z,13.32
2018-04-14T03:47:14.035Z,14.36
2018-04-14T03:51:14.791Z,12.75
2018-04-14T03:57:15.569Z,11.98
2018-04-14T04:01:16.391Z,11
2018-04-14T04:07:17.207Z,12.73
2018-04-14T04:13:18.041Z,11.06
2018-04-14T04:17:18.727Z,12
2018-04-14T04:23:19.584Z,13.04
2018-04-14T04:27:20.330Z,13.39
2018-04-14T04:29:21.170Z,14.5
2018-04-14T04:33:21.945Z,15.01
2018-04-14T04:39:22.694Z,20.14
2018-04-14T04:43:23.368Z,18.73
2018-04-14T04:49:24.209Z,16.23
2018-04-14T04:53:25.029Z,16.08
2018-04-14T04:55:25.758Z,14.99
2018-04-14T04:59:26.546Z,16.18
2018-04-14T05:05:27.216Z,16.22
2018-04-14T05:09:27.951Z,12.14
2018-04-14T05:15:28.682Z,9.88
2018-04-14T05:21:29.513Z,10.77
2018-04-14T05:21:29.516Z,10.77
2018-04-14T05:25:30.411Z,10.44
2018-04-14T05:31:31.098Z,15.37
2018-04-14T05:35:32.011Z,11.46
2018-04-14T05:37:32.759Z,11.44
2018-04-14T05:41:33.421Z,9.85
2018-04-14T05:47:34.216Z,11.87
2018-04-14T05:51:35.035Z,10.34
2018-04-14T05:57:35.713Z,11.75
2018-04-14T06:03:36.459Z,14.43
2018-04-14T06:07:37.226Z,13.9
2018-04-14T06:13:37.997Z,12.98
2018-04-14T06:17:38.773Z,14.34
2018-04-14T06:23:39.564Z,17.64
2018-04-14T06:29:40.380Z,16.75
2018-04-14T06:33:41.443Z,16.9
2018-04-14T06:39:42.173Z,15.34
2018-04-14T06:43:42.976Z,15.31
2018-04-14T06:45:43.673Z,17.92
2018-04-14T06:49:44.566Z,15.33
2018-04-14T06:55:45.435Z,23.8
2018-04-14T06:59:46.349Z,24.73
2018-04-14T07:05:47.354Z,41.39
2018-04-14T07:11:48.016Z,40.05
2018-04-14T07:15:48.797Z,36.27
2018-04-14T07:21:49.598Z,33.47
2018-04-14T07:25:50.395Z,34.41
2018-04-14T07:31:51.089Z,28.07
2018-04-14T07:37:51.958Z,28.13
2018-04-14T07:41:52.758Z,24.78
2018-04-14T07:47:53.514Z,35.58
2018-04-14T07:51:54.276Z,34.87
2018-04-14T07:53:54.982Z,34.61
2018-04-14T07:57:56.280Z,32.62
2018-04-14T08:03:57.343Z,29.66
2018-04-14T08:07:58.219Z,25.36
2018-04-14T08:13:58.906Z,18.27
2018-04-14T08:19:59.814Z,19.42
2018-04-14T08:24:00.690Z,16.79
2018-04-14T08:30:01.463Z,16.36
2018-04-14T08:34:02.141Z,16.31
2018-04-14T08:40:02.963Z,14.17
2018-04-14T08:46:03.831Z,12.43
2018-04-14T08:50:04.628Z,10.15
2018-04-14T08:56:05.662Z,12.28
2018-04-14T09:00:06.596Z,14.74
2018-04-14T09:02:07.384Z,11.66
2018-04-14T09:06:08.083Z,12.33
2018-04-14T09:12:08.914Z,11.8
2018-04-14T09:16:09.657Z,12.73
2018-04-14T09:22:10.417Z,9.9
2018-04-14T09:28:11.098Z,12.33
2018-04-14T09:32:11.860Z,11.01
2018-04-14T09:38:12.681Z,10.93
2018-04-14T09:42:13.328Z,10.5
2018-04-14T09:44:14.153Z,13.02
2018-04-14T09:48:14.879Z,10.6
2018-04-14T09:54:15.705Z,10.82
2018-04-14T09:58:16.444Z,10.52
2018-04-14T10:04:17.218Z,8.74
2018-04-14T10:08:17.849Z,10.28
2018-04-14T10:10:18.580Z,12.88
2018-04-14T10:14:19.386Z,10.72
2018-04-14T10:20:20.106Z,11.84
2018-04-14T10:24:20.977Z,13.01
2018-04-14T10:30:22.046Z,9.91
2018-04-14T10:36:22.918Z,9.55
2018-04-14T10:40:23.617Z,8.97
2018-04-14T10:46:24.460Z,9.48
2018-04-14T10:50:25.233Z,11.03
2018-04-14T10:52:25.948Z,7.36
2018-04-14T10:56:26.755Z,8.59
2018-04-14T11:02:27.655Z,12.94
2018-04-14T11:06:28.362Z,9.99
2018-04-14T11:12:29.143Z,11.72
2018-04-14T11:18:30.110Z,9.64
2018-04-14T11:22:30.815Z,8.43
2018-04-14T11:28:31.604Z,11.9
2018-04-14T11:32:32.415Z,13.04
2018-04-14T11:38:33.204Z,11.59
2018-04-14T11:44:34.158Z,15.97
2018-04-14T11:48:34.893Z,10.89
2018-04-14T11:54:35.761Z,10.71
2018-04-14T11:58:36.507Z,10.33
2018-04-14T12:00:37.947Z,10.07
2018-04-14T12:04:38.725Z,10.98
2018-04-14T12:10:39.420Z,12.03
2018-04-14T12:14:40.146Z,10.2
2018-04-14T12:20:40.917Z,8.54
2018-04-14T12:26:41.814Z,8
2018-04-14T12:30:42.592Z,10.45
2018-04-14T12:36:43.399Z,9.65
2018-04-14T12:40:44.144Z,7.31
2018-04-14T12:46:44.961Z,11.4
2018-04-14T12:52:45.744Z,8.1
2018-04-14T12:56:46.559Z,8.6
2018-04-14T13:02:47.331Z,9.67
2018-04-14T13:06:48.680Z,9.71
2018-04-14T13:08:49.434Z,8.56
2018-04-14T13:12:50.233Z,8.45
2018-04-14T13:18:50.897Z,8.43
2018-04-14T13:22:51.789Z,9.98
2018-04-14T13:28:52.552Z,9.25
2018-04-14T13:34:53.375Z,12.39
2018-04-14T13:38:54.207Z,9.87
2018-04-14T13:44:55.086Z,10.19
2018-04-14T13:48:55.829Z,10.2
2018-04-14T13:50:56.706Z,10.28
2018-04-14T13:54:57.553Z,10.89
2018-04-14T14:00:58.281Z,10.52
2018-04-14T14:04:59.052Z,9.08
2018-04-14T14:10:59.978Z,8.28
2018-04-14T14:15:00.665Z,7.54
2018-04-14T14:17:01.453Z,8.15
2018-04-14T14:21:02.247Z,7.7
2018-04-14T14:27:03.006Z,9.3
2018-04-14T14:31:03.979Z,9.96
2018-04-14T14:37:04.762Z,7.94
2018-04-14T14:43:05.535Z,7.35
2018-04-14T14:47:06.620Z,8.05
2018-04-14T14:53:07.471Z,9.15
2018-04-14T14:57:08.352Z,10.26
2018-04-14T14:59:09.134Z,9.77
2018-04-14T15:03:09.903Z,9.61
2018-04-14T15:09:10.779Z,8.36
2018-04-14T15:13:11.660Z,10.22
2018-04-14T15:19:12.520Z,8.32
2018-04-14T15:25:13.330Z,7.67
2018-04-14T15:29:14.112Z,7.19
2018-04-14T15:35:14.884Z,6.06
2018-04-14T15:39:15.678Z,6.79
2018-04-14T15:45:16.623Z,8.68
2018-04-14T15:51:17.414Z,6.81
2018-04-14T15:55:18.249Z,6.12
2018-04-14T16:01:19.037Z,4.86
2018-04-14T16:05:19.750Z,5.65
2018-04-14T16:07:20.525Z,4.99
2018-04-14T16:11:21.290Z,4.3
2018-04-14T16:17:22.064Z,5.94
2018-04-14T16:21:22.904Z,6.42
2018-04-14T16:27:23.630Z,5.56
2018-04-14T16:33:24.535Z,3.47
2018-04-14T16:37:25.182Z,4.87
2018-04-14T16:43:25.884Z,4.06
2018-04-14T16:47:26.759Z,3.5
2018-04-14T16:49:27.511Z,4.23
2018-04-14T16:53:28.216Z,4.31
2018-04-14T16:59:28.952Z,5.81
2018-04-14T17:03:29.728Z,4.52
2018-04-14T17:09:30.746Z,4.71
2018-04-14T17:13:31.514Z,5.08
2018-04-14T17:15:32.183Z,3.79
2018-04-14T17:19:33.135Z,4.46
2018-04-14T17:25:33.816Z,4.7
2018-04-14T17:29:34.676Z,4.58
2018-04-14T17:35:35.446Z,3.77
2018-04-14T17:41:36.181Z,3.45
2018-04-14T17:45:37.017Z,6.55
2018-04-14T17:51:37.738Z,3.57
2018-04-14T17:55:38.749Z,4.07
2018-04-14T17:57:39.492Z,5.9
2018-04-14T18:01:40.198Z,4.91
2018-04-14T18:07:40.991Z,6.65
2018-04-14T18:11:41.800Z,6.58
2018-04-14T18:17:42.750Z,5.27
2018-04-14T18:23:43.570Z,4.29
2018-04-14T18:27:44.477Z,4.72
2018-04-14T18:33:45.188Z,3.54
2018-04-14T18:37:46.129Z,4.1
2018-04-14T18:43:46.974Z,5.54
2018-04-14T18:49:47.866Z,4.01
2018-04-14T18:53:48.788Z,2.9
2018-04-14T18:59:49.688Z,4.13
2018-04-14T19:03:50.469Z,3.84
2018-04-14T19:05:51.263Z,4.7
2018-04-14T19:09:52.111Z,4.28
2018-04-14T19:15:52.944Z,4.26
2018-04-14T19:19:53.946Z,5.45
2018-04-14T19:25:54.836Z,4.29
2018-04-14T19:31:55.675Z,2.71
2018-04-14T19:35:56.531Z,3.96
2018-04-14T19:41:57.388Z,4.97
2018-04-14T19:45:58.101Z,4.9
2018-04-14T19:47:58.948Z,5.55
2018-04-14T19:52:00.019Z,3.02
2018-04-14T19:58:00.781Z,3.13
2018-04-14T20:02:01.651Z,3.24
2018-04-14T20:08:02.615Z,3.33
2018-04-14T20:12:03.494Z,2.83
2018-04-14T20:14:04.358Z,4.17
2018-04-14T20:18:05.218Z,4.72
2018-04-14T20:24:06.156Z,5.2
2018-04-14T20:28:07.438Z,3.56
2018-04-14T20:34:08.442Z,4.05
2018-04-14T20:40:09.313Z,4.02
2018-04-14T20:44:10.141Z,4.43
2018-04-14T20:50:10.955Z,3.92
2018-04-14T20:54:12.006Z,3.58
2018-04-14T20:56:12.725Z,5.75
2018-04-14T21:00:13.949Z,4.08
2018-04-14T21:06:14.561Z,5.68
2018-04-14T21:10:15.285Z,6.62
2018-04-14T21:16:16.325Z,4.59
2018-04-14T21:20:17.065Z,3.25
2018-04-14T21:22:17.867Z,3.73
2018-04-14T21:26:18.668Z,4.33
2018-04-14T21:32:19.534Z,3.16
2018-04-14T21:36:20.241Z,5.6
2018-04-14T21:42:21.195Z,4.36
2018-04-14T21:48:22.042Z,3.83
2018-04-14T21:52:22.956Z,3.47
2018-04-14T21:58:23.766Z,3.61
2018-04-14T22:02:24.714Z,5.13
2018-04-14T22:04:25.625Z,4.58
2018-04-14T22:08:26.378Z,4.88
2018-04-14T22:14:27.343Z,3.96
2018-04-14T22:18:28.334Z,6.4
2018-04-14T22:24:29.526Z,4.72
2018-04-14T22:30:31.046Z,3.75
2018-04-14T22:34:31.824Z,5.45
2018-04-14T22:40:32.645Z,3.49
2018-04-14T22:44:33.423Z,2.84
2018-04-14T22:50:34.123Z,3.14
2018-04-14T22:56:34.868Z,3.23
2018-04-14T23:00:35.889Z,3.86
2018-04-14T23:06:36.716Z,4.58
2018-04-14T23:10:37.475Z,3.27
2018-04-14T23:12:38.196Z,3.47
2018-04-14T23:16:38.939Z,4.21
2018-04-14T23:22:39.897Z,5.09
2018-04-14T23:26:40.612Z,3.56
2018-04-14T23:32:41.397Z,3.81
2018-04-14T23:38:42.152Z,3.68
2018-04-14T23:42:43.327Z,4.35
2018-04-14T23:48:44.093Z,4.32
2018-04-14T23:52:44.817Z,3.4
2018-04-14T23:54:45.664Z,4.83
2018-04-14T23:58:46.723Z,5.24
